sensor_id;sensor_type;location;lat;lon;timestamp;pressure;altitude;pressure_sealevel;temperature;humidity
74544;BME280;63016;55.030;38.710;2023-09-18T00:01:39;100625.50;;;8.74;58.74
74544;BME280;63016;55.030;38.710;2023-09-18T00:04:07;100606.75;;;8.71;59.28
74544;BME280;63016;55.030;38.710;2023-09-18T00:06:33;100619.88;;;8.79;59.12
74544;BME280;63016;55.030;38.710;2023-09-18T00:08:58;100611.41;;;8.77;59.42
74544;BME280;63016;55.030;38.710;2023-09-18T00:11:24;100611.81;;;8.82;60.00
74544;BME280;63016;55.030;38.710;2023-09-18T00:13:50;100616.75;;;8.85;59.90
74544;BME280;63016;55.030;38.710;2023-09-18T00:16:15;100613.19;;;8.86;59.79
74544;BME280;63016;55.030;38.710;2023-09-18T00:18:41;100609.38;;;8.90;59.97
74544;BME280;63016;55.030;38.710;2023-09-18T00:21:08;100607.59;;;8.91;60.35
74544;BME280;63016;55.030;38.710;2023-09-18T00:23:38;100615.38;;;9.00;60.34
74544;BME280;63016;55.030;38.710;2023-09-18T00:26:04;100619.22;;;9.06;60.44
74544;BME280;63016;55.030;38.710;2023-09-18T00:28:29;100612.22;;;9.07;60.65
74544;BME280;63016;55.030;38.710;2023-09-18T00:30:55;100613.34;;;9.14;60.06
74544;BME280;63016;55.030;38.710;2023-09-18T00:33:20;100612.06;;;9.18;59.71
74544;BME280;63016;55.030;38.710;2023-09-18T00:35:50;100614.41;;;9.21;60.07
74544;BME280;63016;55.030;38.710;2023-09-18T00:38:16;100616.75;;;9.24;60.85
74544;BME280;63016;55.030;38.710;2023-09-18T00:40:42;100612.22;;;9.26;60.13
74544;BME280;63016;55.030;38.710;2023-09-18T00:43:08;100600.00;;;9.26;60.81
74544;BME280;63016;55.030;38.710;2023-09-18T00:45:38;100609.03;;;9.32;60.95
74544;BME280;63016;55.030;38.710;2023-09-18T00:48:05;100606.00;;;9.37;60.78
74544;BME280;63016;55.030;38.710;2023-09-18T00:50:31;100616.97;;;9.40;60.66
74544;BME280;63016;55.030;38.710;2023-09-18T00:52:57;100605.91;;;9.38;61.07
74544;BME280;63016;55.030;38.710;2023-09-18T00:55:23;100605.47;;;9.43;61.04
74544;BME280;63016;55.030;38.710;2023-09-18T00:57:48;100612.16;;;9.45;60.35
74544;BME280;63016;55.030;38.710;2023-09-18T01:00:14;100605.19;;;9.46;60.38
74544;BME280;63016;55.030;38.710;2023-09-18T01:02:43;100594.09;;;9.44;60.02
74544;BME280;63016;55.030;38.710;2023-09-18T01:05:10;100593.50;;;9.50;60.64
74544;BME280;63016;55.030;38.710;2023-09-18T01:07:36;100595.97;;;9.51;60.21
74544;BME280;63016;55.030;38.710;2023-09-18T01:10:02;100580.50;;;9.50;60.31
74544;BME280;63016;55.030;38.710;2023-09-18T01:12:44;100587.06;;;9.54;60.21
74544;BME280;63016;55.030;38.710;2023-09-18T01:15:26;100598.31;;;9.55;60.36
74544;BME280;63016;55.030;38.710;2023-09-18T01:17:55;100596.53;;;9.55;60.52
74544;BME280;63016;55.030;38.710;2023-09-18T01:20:21;100589.66;;;9.54;60.37
74544;BME280;63016;55.030;38.710;2023-09-18T01:22:46;100584.88;;;9.49;59.88
74544;BME280;63016;55.030;38.710;2023-09-18T01:25:14;100599.28;;;9.53;59.90
74544;BME280;63016;55.030;38.710;2023-09-18T01:27:39;100590.63;;;9.53;59.83
74544;BME280;63016;55.030;38.710;2023-09-18T01:30:05;100587.88;;;9.55;60.51
74544;BME280;63016;55.030;38.710;2023-09-18T01:32:32;100588.69;;;9.55;60.58
74544;BME280;63016;55.030;38.710;2023-09-18T01:35:01;100585.94;;;9.57;61.05
74544;BME280;63016;55.030;38.710;2023-09-18T01:37:29;100582.41;;;9.58;61.04
74544;BME280;63016;55.030;38.710;2023-09-18T01:39:56;100578.00;;;9.58;60.98
74544;BME280;63016;55.030;38.710;2023-09-18T01:42:26;100580.06;;;9.55;61.03
74544;BME280;63016;55.030;38.710;2023-09-18T01:44:53;100568.69;;;9.56;60.77
74544;BME280;63016;55.030;38.710;2023-09-18T01:47:20;100571.69;;;9.61;61.18
74544;BME280;63016;55.030;38.710;2023-09-18T01:49:46;100578.41;;;9.63;60.56
74544;BME280;63016;55.030;38.710;2023-09-18T01:52:12;100593.88;;;9.65;60.80
74544;BME280;63016;55.030;38.710;2023-09-18T01:54:38;100579.88;;;9.66;61.07
74544;BME280;63016;55.030;38.710;2023-09-18T01:57:04;100575.78;;;9.63;61.14
74544;BME280;63016;55.030;38.710;2023-09-18T01:59:30;100574.56;;;9.67;61.41
74544;BME280;63016;55.030;38.710;2023-09-18T02:01:56;100592.06;;;9.75;61.94
74544;BME280;63016;55.030;38.710;2023-09-18T02:04:22;100574.94;;;9.72;61.67
74544;BME280;63016;55.030;38.710;2023-09-18T02:06:49;100578.44;;;9.81;61.93
74544;BME280;63016;55.030;38.710;2023-09-18T02:09:16;100575.72;;;9.83;61.61
74544;BME280;63016;55.030;38.710;2023-09-18T02:11:43;100579.53;;;9.88;61.62
74544;BME280;63016;55.030;38.710;2023-09-18T02:14:09;100569.66;;;9.92;62.23
74544;BME280;63016;55.030;38.710;2023-09-18T02:16:37;100574.56;;;9.95;61.87
74544;BME280;63016;55.030;38.710;2023-09-18T02:19:03;100570.84;;;9.97;61.74
74544;BME280;63016;55.030;38.710;2023-09-18T02:21:29;100561.81;;;9.92;61.75
74544;BME280;63016;55.030;38.710;2023-09-18T02:23:55;100564.38;;;10.01;61.26
74544;BME280;63016;55.030;38.710;2023-09-18T02:26:22;100578.75;;;10.05;61.66
74544;BME280;63016;55.030;38.710;2023-09-18T02:28:48;100584.66;;;10.08;61.55
74544;BME280;63016;55.030;38.710;2023-09-18T02:31:14;100572.72;;;10.05;61.94
74544;BME280;63016;55.030;38.710;2023-09-18T02:33:40;100569.28;;;10.04;61.39
74544;BME280;63016;55.030;38.710;2023-09-18T02:36:06;100562.81;;;10.09;61.95
74544;BME280;63016;55.030;38.710;2023-09-18T02:38:33;100564.34;;;10.11;61.98
74544;BME280;63016;55.030;38.710;2023-09-18T02:40:58;100576.25;;;10.14;61.72
74544;BME280;63016;55.030;38.710;2023-09-18T02:43:24;100568.78;;;10.19;62.26
74544;BME280;63016;55.030;38.710;2023-09-18T02:45:50;100567.81;;;10.20;62.01
74544;BME280;63016;55.030;38.710;2023-09-18T02:48:17;100563.31;;;10.22;62.26
74544;BME280;63016;55.030;38.710;2023-09-18T02:50:43;100564.81;;;10.24;61.89
74544;BME280;63016;55.030;38.710;2023-09-18T02:55:46;100553.56;;;10.24;61.95
74544;BME280;63016;55.030;38.710;2023-09-18T02:58:11;100555.19;;;10.25;62.12
74544;BME280;63016;55.030;38.710;2023-09-18T03:00:43;100551.31;;;10.29;61.93
74544;BME280;63016;55.030;38.710;2023-09-18T03:03:09;100556.63;;;10.37;59.71
74544;BME280;63016;55.030;38.710;2023-09-18T03:05:35;100551.72;;;10.34;61.37
74544;BME280;63016;55.030;38.710;2023-09-18T03:08:01;100548.44;;;10.32;61.67
74544;BME280;63016;55.030;38.710;2023-09-18T03:10:27;100545.84;;;10.32;61.88
74544;BME280;63016;55.030;38.710;2023-09-18T03:12:53;100542.41;;;10.32;61.94
74544;BME280;63016;55.030;38.710;2023-09-18T03:15:18;100538.16;;;10.31;61.73
74544;BME280;63016;55.030;38.710;2023-09-18T03:17:44;100537.03;;;10.33;61.77
74544;BME280;63016;55.030;38.710;2023-09-18T03:20:10;100540.16;;;10.37;62.39
74544;BME280;63016;55.030;38.710;2023-09-18T03:22:35;100537.28;;;10.40;61.71
74544;BME280;63016;55.030;38.710;2023-09-18T03:25:01;100532.19;;;10.38;62.02
74544;BME280;63016;55.030;38.710;2023-09-18T03:27:26;100533.81;;;10.39;62.22
74544;BME280;63016;55.030;38.710;2023-09-18T03:29:57;100532.06;;;10.40;62.25
74544;BME280;63016;55.030;38.710;2023-09-18T03:32:23;100538.31;;;10.47;62.21
74544;BME280;63016;55.030;38.710;2023-09-18T03:34:51;100529.13;;;10.43;62.53
74544;BME280;63016;55.030;38.710;2023-09-18T03:37:17;100543.38;;;10.48;62.48
74544;BME280;63016;55.030;38.710;2023-09-18T03:39:43;100541.44;;;10.50;62.18
74544;BME280;63016;55.030;38.710;2023-09-18T03:42:08;100547.31;;;10.52;62.42
74544;BME280;63016;55.030;38.710;2023-09-18T03:44:34;100538.84;;;10.50;62.07
74544;BME280;63016;55.030;38.710;2023-09-18T03:47:00;100538.88;;;10.59;62.44
74544;BME280;63016;55.030;38.710;2023-09-18T03:49:27;100543.16;;;10.60;62.68
74544;BME280;63016;55.030;38.710;2023-09-18T03:51:53;100542.84;;;10.63;62.62
74544;BME280;63016;55.030;38.710;2023-09-18T03:54:18;100539.28;;;10.64;62.36
74544;BME280;63016;55.030;38.710;2023-09-18T03:56:45;100536.38;;;10.67;62.44
74544;BME280;63016;55.030;38.710;2023-09-18T03:59:12;100535.38;;;10.68;62.32
74544;BME280;63016;55.030;38.710;2023-09-18T04:01:37;100531.66;;;10.70;63.09
74544;BME280;63016;55.030;38.710;2023-09-18T04:04:03;100527.91;;;10.73;62.71
74544;BME280;63016;55.030;38.710;2023-09-18T04:06:44;100525.31;;;10.73;63.18
74544;BME280;63016;55.030;38.710;2023-09-18T04:09:11;100535.81;;;10.81;63.12
74544;BME280;63016;55.030;38.710;2023-09-18T04:11:37;100529.78;;;10.80;63.23
74544;BME280;63016;55.030;38.710;2023-09-18T04:14:03;100524.56;;;10.80;63.31
74544;BME280;63016;55.030;38.710;2023-09-18T04:16:29;100536.72;;;10.90;63.56
74544;BME280;63016;55.030;38.710;2023-09-18T04:18:56;100527.63;;;10.94;63.04
74544;BME280;63016;55.030;38.710;2023-09-18T04:21:22;100537.59;;;10.98;63.19
74544;BME280;63016;55.030;38.710;2023-09-18T04:23:47;100534.84;;;11.00;63.51
74544;BME280;63016;55.030;38.710;2023-09-18T04:26:13;100538.16;;;11.10;64.20
74544;BME280;63016;55.030;38.710;2023-09-18T04:28:41;100543.00;;;11.23;63.85
74544;BME280;63016;55.030;38.710;2023-09-18T04:31:07;100522.38;;;11.20;63.56
74544;BME280;63016;55.030;38.710;2023-09-18T04:33:33;100520.34;;;11.31;63.92
74544;BME280;63016;55.030;38.710;2023-09-18T04:35:58;100523.16;;;11.38;63.63
74544;BME280;63016;55.030;38.710;2023-09-18T04:38:24;100521.88;;;11.42;63.16
74544;BME280;63016;55.030;38.710;2023-09-18T04:40:49;100527.97;;;11.51;63.46
74544;BME280;63016;55.030;38.710;2023-09-18T04:43:15;100510.50;;;11.51;63.74
74544;BME280;63016;55.030;38.710;2023-09-18T04:45:40;100510.31;;;11.53;63.40
74544;BME280;63016;55.030;38.710;2023-09-18T04:48:07;100522.63;;;11.61;63.57
74544;BME280;63016;55.030;38.710;2023-09-18T04:50:33;100525.41;;;11.67;63.45
74544;BME280;63016;55.030;38.710;2023-09-18T04:52:59;100515.63;;;11.69;63.65
74544;BME280;63016;55.030;38.710;2023-09-18T04:55:24;100524.66;;;11.75;63.79
74544;BME280;63016;55.030;38.710;2023-09-18T04:57:50;100519.75;;;11.80;63.69
74544;BME280;63016;55.030;38.710;2023-09-18T05:00:16;100501.59;;;11.78;63.78
74544;BME280;63016;55.030;38.710;2023-09-18T05:02:42;100511.31;;;11.86;63.87
74544;BME280;63016;55.030;38.710;2023-09-18T05:05:08;100514.91;;;11.93;63.69
74544;BME280;63016;55.030;38.710;2023-09-18T05:07:36;100513.63;;;11.97;64.05
74544;BME280;63016;55.030;38.710;2023-09-18T05:10:02;100507.41;;;11.98;64.10
74544;BME280;63016;55.030;38.710;2023-09-18T05:12:29;100514.63;;;12.04;64.08
74544;BME280;63016;55.030;38.710;2023-09-18T05:14:55;100507.78;;;12.12;63.98
74544;BME280;63016;55.030;38.710;2023-09-18T05:17:42;100501.41;;;12.14;63.88
74544;BME280;63016;55.030;38.710;2023-09-18T05:20:10;100506.97;;;12.19;64.22
74544;BME280;63016;55.030;38.710;2023-09-18T05:22:37;100510.41;;;12.28;64.31
74544;BME280;63016;55.030;38.710;2023-09-18T05:25:03;100506.19;;;12.35;64.39
74544;BME280;63016;55.030;38.710;2023-09-18T05:27:29;100496.84;;;12.41;64.46
74544;BME280;63016;55.030;38.710;2023-09-18T05:29:55;100507.34;;;12.49;64.52
74544;BME280;63016;55.030;38.710;2023-09-18T05:32:20;100510.44;;;12.60;64.90
74544;BME280;63016;55.030;38.710;2023-09-18T05:34:46;100507.66;;;12.78;64.86
74544;BME280;63016;55.030;38.710;2023-09-18T05:37:11;100503.41;;;12.94;64.48
74544;BME280;63016;55.030;38.710;2023-09-18T05:39:37;100501.91;;;13.07;65.02
74544;BME280;63016;55.030;38.710;2023-09-18T05:42:02;100500.94;;;13.25;64.87
74544;BME280;63016;55.030;38.710;2023-09-18T05:44:28;100509.72;;;13.40;64.71
74544;BME280;63016;55.030;38.710;2023-09-18T05:46:54;100518.69;;;13.54;64.32
74544;BME280;63016;55.030;38.710;2023-09-18T05:49:19;100502.09;;;13.61;64.21
74544;BME280;63016;55.030;38.710;2023-09-18T05:51:45;100517.13;;;13.76;64.50
74544;BME280;63016;55.030;38.710;2023-09-18T05:54:12;100511.47;;;13.87;64.38
74544;BME280;63016;55.030;38.710;2023-09-18T05:56:37;100499.44;;;14.01;64.02
74544;BME280;63016;55.030;38.710;2023-09-18T05:59:03;100519.59;;;14.08;63.85
74544;BME280;63016;55.030;38.710;2023-09-18T06:01:29;100508.34;;;14.23;63.80
74544;BME280;63016;55.030;38.710;2023-09-18T06:03:55;100515.19;;;14.32;63.96
74544;BME280;63016;55.030;38.710;2023-09-18T06:06:20;100508.88;;;14.41;63.90
74544;BME280;63016;55.030;38.710;2023-09-18T06:08:46;100516.19;;;14.54;63.81
74544;BME280;63016;55.030;38.710;2023-09-18T06:11:11;100518.84;;;14.69;64.38
74544;BME280;63016;55.030;38.710;2023-09-18T06:13:37;100506.13;;;14.80;63.99
74544;BME280;63016;55.030;38.710;2023-09-18T06:16:02;100495.38;;;14.90;64.09
74544;BME280;63016;55.030;38.710;2023-09-18T06:18:32;100501.25;;;15.07;63.72
74544;BME280;63016;55.030;38.710;2023-09-18T06:20:58;100486.22;;;15.15;64.05
74544;BME280;63016;55.030;38.710;2023-09-18T06:23:23;100499.72;;;15.27;63.56
74544;BME280;63016;55.030;38.710;2023-09-18T06:25:49;100489.94;;;15.36;63.87
74544;BME280;63016;55.030;38.710;2023-09-18T06:28:20;100495.19;;;15.51;63.75
74544;BME280;63016;55.030;38.710;2023-09-18T06:30:46;100495.28;;;15.57;63.83
74544;BME280;63016;55.030;38.710;2023-09-18T06:33:11;100499.09;;;15.70;63.48
74544;BME280;63016;55.030;38.710;2023-09-18T06:35:37;100500.63;;;15.79;63.60
74544;BME280;63016;55.030;38.710;2023-09-18T06:38:03;100490.28;;;15.92;63.62
74544;BME280;63016;55.030;38.710;2023-09-18T06:40:31;100482.25;;;16.00;63.63
74544;BME280;63016;55.030;38.710;2023-09-18T06:43:00;100493.16;;;16.18;63.72
74544;BME280;63016;55.030;38.710;2023-09-18T06:45:25;100494.69;;;16.28;63.59
74544;BME280;63016;55.030;38.710;2023-09-18T06:47:51;100494.38;;;16.37;63.32
74544;BME280;63016;55.030;38.710;2023-09-18T06:50:18;100486.34;;;16.45;63.52
74544;BME280;63016;55.030;38.710;2023-09-18T06:52:44;100485.44;;;16.60;63.53
74544;BME280;63016;55.030;38.710;2023-09-18T06:55:09;100488.78;;;16.68;63.41
74544;BME280;63016;55.030;38.710;2023-09-18T06:57:35;100489.66;;;16.76;63.30
74544;BME280;63016;55.030;38.710;2023-09-18T07:00:01;100487.69;;;16.84;63.45
74544;BME280;63016;55.030;38.710;2023-09-18T07:02:29;100486.09;;;16.90;63.44
74544;BME280;63016;55.030;38.710;2023-09-18T07:04:58;100491.66;;;17.02;63.29
74544;BME280;63016;55.030;38.710;2023-09-18T07:07:24;100487.47;;;17.07;63.25
74544;BME280;63016;55.030;38.710;2023-09-18T07:09:53;100491.16;;;17.19;63.32
74544;BME280;63016;55.030;38.710;2023-09-18T07:12:19;100479.03;;;17.25;62.99
74544;BME280;63016;55.030;38.710;2023-09-18T07:14:47;100496.75;;;17.38;62.97
74544;BME280;63016;55.030;38.710;2023-09-18T07:17:13;100499.41;;;17.44;62.70
74544;BME280;63016;55.030;38.710;2023-09-18T07:19:39;100495.16;;;17.50;62.38
74544;BME280;63016;55.030;38.710;2023-09-18T07:22:04;100487.31;;;17.57;62.77
74544;BME280;63016;55.030;38.710;2023-09-18T07:24:30;100482.03;;;17.63;62.73
74544;BME280;63016;55.030;38.710;2023-09-18T07:26:55;100475.38;;;17.67;62.63
74544;BME280;63016;55.030;38.710;2023-09-18T07:29:23;100483.53;;;17.79;62.75
74544;BME280;63016;55.030;38.710;2023-09-18T07:31:51;100483.16;;;17.89;62.34
74544;BME280;63016;55.030;38.710;2023-09-18T07:34:17;100471.03;;;17.94;62.62
74544;BME280;63016;55.030;38.710;2023-09-18T07:36:43;100474.69;;;18.07;62.53
74544;BME280;63016;55.030;38.710;2023-09-18T07:39:12;100474.31;;;18.16;62.75
74544;BME280;63016;55.030;38.710;2023-09-18T07:41:37;100472.28;;;18.25;62.72
74544;BME280;63016;55.030;38.710;2023-09-18T07:44:03;100480.41;;;18.30;62.72
74544;BME280;63016;55.030;38.710;2023-09-18T07:46:29;100482.66;;;18.40;62.36
74544;BME280;63016;55.030;38.710;2023-09-18T07:48:54;100493.44;;;18.45;62.12
74544;BME280;63016;55.030;38.710;2023-09-18T07:51:20;100497.31;;;18.49;62.51
74544;BME280;63016;55.030;38.710;2023-09-18T07:53:46;100494.88;;;18.54;62.74
74544;BME280;63016;55.030;38.710;2023-09-18T07:56:12;100493.25;;;18.60;62.81
74544;BME280;63016;55.030;38.710;2023-09-18T07:58:38;100492.25;;;18.67;63.02
74544;BME280;63016;55.030;38.710;2023-09-18T08:01:05;100495.91;;;18.80;62.91
74544;BME280;63016;55.030;38.710;2023-09-18T08:03:31;100487.56;;;18.89;62.98
74544;BME280;63016;55.030;38.710;2023-09-18T08:05:57;100486.53;;;18.97;62.97
74544;BME280;63016;55.030;38.710;2023-09-18T08:08:23;100484.88;;;19.09;62.72
74544;BME280;63016;55.030;38.710;2023-09-18T08:10:52;100490.75;;;19.18;62.94
74544;BME280;63016;55.030;38.710;2023-09-18T08:13:18;100488.13;;;19.24;62.46
74544;BME280;63016;55.030;38.710;2023-09-18T08:15:45;100492.75;;;19.36;62.37
74544;BME280;63016;55.030;38.710;2023-09-18T08:18:12;100485.41;;;19.44;62.41
74544;BME280;63016;55.030;38.710;2023-09-18T08:20:44;100476.63;;;19.50;62.04
74544;BME280;63016;55.030;38.710;2023-09-18T08:23:11;100478.06;;;19.60;61.74
74544;BME280;63016;55.030;38.710;2023-09-18T08:25:37;100481.06;;;19.70;61.82
74544;BME280;63016;55.030;38.710;2023-09-18T08:28:03;100469.88;;;19.68;61.50
74544;BME280;63016;55.030;38.710;2023-09-18T08:30:30;100481.00;;;19.83;61.69
74544;BME280;63016;55.030;38.710;2023-09-18T08:32:56;100477.72;;;19.88;61.61
74544;BME280;63016;55.030;38.710;2023-09-18T08:35:21;100477.09;;;19.92;61.58
74544;BME280;63016;55.030;38.710;2023-09-18T08:37:48;100476.00;;;20.00;61.63
74544;BME280;63016;55.030;38.710;2023-09-18T08:40:14;100479.22;;;20.09;61.56
74544;BME280;63016;55.030;38.710;2023-09-18T08:42:46;100475.50;;;20.16;61.87
74544;BME280;63016;55.030;38.710;2023-09-18T08:45:19;100486.88;;;20.23;61.40
74544;BME280;63016;55.030;38.710;2023-09-18T08:47:48;100473.19;;;20.26;61.14
74544;BME280;63016;55.030;38.710;2023-09-18T08:50:15;100480.50;;;20.31;61.27
74544;BME280;63016;55.030;38.710;2023-09-18T08:52:41;100473.06;;;20.40;61.06
74544;BME280;63016;55.030;38.710;2023-09-18T08:55:07;100463.09;;;20.42;60.72
74544;BME280;63016;55.030;38.710;2023-09-18T08:57:34;100468.75;;;20.52;61.33
74544;BME280;63016;55.030;38.710;2023-09-18T09:00:01;100475.41;;;20.61;61.10
74544;BME280;63016;55.030;38.710;2023-09-18T09:02:32;100482.63;;;20.72;60.72
74544;BME280;63016;55.030;38.710;2023-09-18T09:04:58;100477.25;;;20.79;60.60
74544;BME280;63016;55.030;38.710;2023-09-18T09:07:25;100466.06;;;20.77;60.93
74544;BME280;63016;55.030;38.710;2023-09-18T09:09:51;100463.53;;;20.89;60.69
74544;BME280;63016;55.030;38.710;2023-09-18T09:15:14;100465.59;;;21.05;60.29
74544;BME280;63016;55.030;38.710;2023-09-18T09:17:41;100464.31;;;21.08;60.26
74544;BME280;63016;55.030;38.710;2023-09-18T09:20:12;100458.97;;;21.14;60.53
74544;BME280;63016;55.030;38.710;2023-09-18T09:22:39;100455.66;;;21.19;59.78
74544;BME280;63016;55.030;38.710;2023-09-18T09:25:29;100458.59;;;21.29;60.53
74544;BME280;63016;55.030;38.710;2023-09-18T09:27:58;100454.50;;;21.33;59.56
74544;BME280;63016;55.030;38.710;2023-09-18T10:49:46;100444.47;;;22.37;56.17
74544;BME280;63016;55.030;38.710;2023-09-18T10:52:15;100435.81;;;22.30;56.34
74544;BME280;63016;55.030;38.710;2023-09-18T10:54:40;100440.78;;;22.38;56.50
74544;BME280;63016;55.030;38.710;2023-09-18T10:57:06;100437.91;;;22.40;56.74
74544;BME280;63016;55.030;38.710;2023-09-18T10:59:43;100432.34;;;22.41;56.93
74544;BME280;63016;55.030;38.710;2023-09-18T11:02:10;100439.75;;;22.51;56.91
74544;BME280;63016;55.030;38.710;2023-09-18T11:04:35;100440.47;;;22.58;56.84
74544;BME280;63016;55.030;38.710;2023-09-18T11:07:02;100423.91;;;22.56;56.23
74544;BME280;63016;55.030;38.710;2023-09-18T11:09:30;100439.53;;;22.64;56.11
74544;BME280;63016;55.030;38.710;2023-09-18T11:14:32;100441.38;;;22.64;55.90
74544;BME280;63016;55.030;38.710;2023-09-18T11:17:06;100425.63;;;22.62;55.75
74544;BME280;63016;55.030;38.710;2023-09-18T11:22:55;100421.59;;;22.60;56.55
74544;BME280;63016;55.030;38.710;2023-09-18T11:28:03;100435.81;;;22.65;55.86
74544;BME280;63016;55.030;38.710;2023-09-18T11:30:29;100428.09;;;22.64;55.65
74544;BME280;63016;55.030;38.710;2023-09-18T11:32:55;100442.75;;;22.66;55.41
74544;BME280;63016;55.030;38.710;2023-09-18T11:35:22;100444.84;;;22.64;55.56
74544;BME280;63016;55.030;38.710;2023-09-18T11:38:03;100427.72;;;22.60;56.08
74544;BME280;63016;55.030;38.710;2023-09-18T11:40:32;100447.50;;;22.64;55.63
74544;BME280;63016;55.030;38.710;2023-09-18T11:45:58;100444.25;;;22.62;55.36
74544;BME280;63016;55.030;38.710;2023-09-18T11:48:26;100447.41;;;22.59;55.49
74544;BME280;63016;55.030;38.710;2023-09-18T11:50:59;100432.59;;;22.51;55.48
74544;BME280;63016;55.030;38.710;2023-09-18T11:53:27;100440.09;;;22.54;55.85
74544;BME280;63016;55.030;38.710;2023-09-18T11:55:53;100436.03;;;22.52;55.39
74544;BME280;63016;55.030;38.710;2023-09-18T11:58:19;100445.06;;;22.51;55.43
74544;BME280;63016;55.030;38.710;2023-09-18T12:00:50;100443.47;;;22.50;55.40
74544;BME280;63016;55.030;38.710;2023-09-18T12:03:21;100441.03;;;22.48;55.84
74544;BME280;63016;55.030;38.710;2023-09-18T12:06:00;100424.00;;;22.38;55.54
74544;BME280;63016;55.030;38.710;2023-09-18T12:08:26;100436.97;;;22.46;55.47
74544;BME280;63016;55.030;38.710;2023-09-18T12:10:55;100440.88;;;22.43;55.66
74544;BME280;63016;55.030;38.710;2023-09-18T12:13:25;100430.38;;;22.37;55.53
74544;BME280;63016;55.030;38.710;2023-09-18T12:15:56;100432.00;;;22.38;55.77
74544;BME280;63016;55.030;38.710;2023-09-18T12:18:24;100434.19;;;22.41;55.62
74544;BME280;63016;55.030;38.710;2023-09-18T12:20:50;100443.91;;;22.47;55.48
74544;BME280;63016;55.030;38.710;2023-09-18T12:23:17;100434.56;;;22.44;55.91
74544;BME280;63016;55.030;38.710;2023-09-18T12:25:49;100440.78;;;22.50;55.67
74544;BME280;63016;55.030;38.710;2023-09-18T12:28:15;100430.72;;;22.40;55.19
74544;BME280;63016;55.030;38.710;2023-09-18T12:30:42;100413.06;;;22.34;55.01
74544;BME280;63016;55.030;38.710;2023-09-18T12:33:08;100438.69;;;22.52;55.00
74544;BME280;63016;55.030;38.710;2023-09-18T12:35:34;100441.38;;;22.52;55.26
74544;BME280;63016;55.030;38.710;2023-09-18T12:38:01;100435.34;;;22.56;55.54
74544;BME280;63016;55.030;38.710;2023-09-18T12:40:30;100440.91;;;22.55;55.63
74544;BME280;63016;55.030;38.710;2023-09-18T12:43:02;100437.22;;;22.56;55.14
74544;BME280;63016;55.030;38.710;2023-09-18T12:45:31;100435.47;;;22.62;54.53
74544;BME280;63016;55.030;38.710;2023-09-18T12:48:00;100433.41;;;22.64;54.99
74544;BME280;63016;55.030;38.710;2023-09-18T12:50:26;100409.56;;;22.45;54.74
74544;BME280;63016;55.030;38.710;2023-09-18T12:52:52;100426.56;;;22.56;54.49
74544;BME280;63016;55.030;38.710;2023-09-18T12:55:25;100433.75;;;22.55;54.39
74544;BME280;63016;55.030;38.710;2023-09-18T12:57:53;100438.69;;;22.52;54.60
74544;BME280;63016;55.030;38.710;2023-09-18T13:00:23;100441.38;;;22.52;54.51
74544;BME280;63016;55.030;38.710;2023-09-18T13:02:52;100433.38;;;22.52;54.26
74544;BME280;63016;55.030;38.710;2023-09-18T13:05:21;100442.41;;;22.51;54.07
74544;BME280;63016;55.030;38.710;2023-09-18T13:07:51;100442.84;;;22.48;54.50
74544;BME280;63016;55.030;38.710;2023-09-18T13:10:20;100435.69;;;22.37;53.82
74544;BME280;63016;55.030;38.710;2023-09-18T13:12:51;100447.38;;;22.36;54.76
74544;BME280;63016;55.030;38.710;2023-09-18T13:15:32;100449.19;;;22.23;54.89
74544;BME280;63016;55.030;38.710;2023-09-18T13:18:00;100441.41;;;22.10;55.27
74544;BME280;63016;55.030;38.710;2023-09-18T13:20:28;100442.78;;;22.01;55.35
74544;BME280;63016;55.030;38.710;2023-09-18T13:22:56;100414.03;;;21.79;55.43
74544;BME280;63016;55.030;38.710;2023-09-18T13:25:25;100444.00;;;21.87;55.78
74544;BME280;63016;55.030;38.710;2023-09-18T13:27:52;100439.56;;;21.80;55.78
74544;BME280;63016;55.030;38.710;2023-09-18T13:30:18;100438.44;;;21.76;55.64
74544;BME280;63016;55.030;38.710;2023-09-18T13:32:46;100435.63;;;21.71;55.92
74544;BME280;63016;55.030;38.710;2023-09-18T13:35:14;100435.50;;;21.66;55.90
74544;BME280;63016;55.030;38.710;2023-09-18T13:37:40;100444.03;;;21.68;56.27
74544;BME280;63016;55.030;38.710;2023-09-18T13:40:07;100439.63;;;21.62;56.00
74544;BME280;63016;55.030;38.710;2023-09-18T13:42:37;100446.19;;;21.60;56.07
74544;BME280;63016;55.030;38.710;2023-09-18T13:45:04;100446.06;;;21.54;55.96
74544;BME280;63016;55.030;38.710;2023-09-18T13:47:30;100450.28;;;21.44;55.87
74544;BME280;63016;55.030;38.710;2023-09-18T13:49:56;100449.09;;;21.40;56.11
74544;BME280;63016;55.030;38.710;2023-09-18T13:52:31;100445.13;;;21.30;56.04
74544;BME280;63016;55.030;38.710;2023-09-18T13:54:57;100456.19;;;21.27;56.10
74544;BME280;63016;55.030;38.710;2023-09-18T13:57:24;100451.72;;;21.21;56.20
74544;BME280;63016;55.030;38.710;2023-09-18T13:59:50;100453.81;;;21.19;56.33
74544;BME280;63016;55.030;38.710;2023-09-18T14:02:20;100460.16;;;21.18;56.56
74544;BME280;63016;55.030;38.710;2023-09-18T14:04:46;100466.69;;;21.16;55.97
74544;BME280;63016;55.030;38.710;2023-09-18T14:07:11;100462.72;;;21.07;56.07
74544;BME280;63016;55.030;38.710;2023-09-18T14:09:38;100457.72;;;20.98;56.19
74544;BME280;63016;55.030;38.710;2023-09-18T14:12:04;100452.63;;;20.97;56.47
74544;BME280;63016;55.030;38.710;2023-09-18T14:14:35;100444.97;;;20.89;56.60
74544;BME280;63016;55.030;38.710;2023-09-18T14:17:02;100453.28;;;20.92;56.46
74544;BME280;63016;55.030;38.710;2023-09-18T14:19:29;100435.81;;;20.85;56.69